Culleredo, Spain
Current Conditions -  °F | °C
As of 10:30 AM on Friday 28 Nov 2014 (Local Time) from LECO Reporting Station
Light Rain Light Rain  
Wind Chill: 10°   Ceiling: 3300
Heat Index: 10°   Visibility: 6mi
Dew Point:   Wind: 3mph
Humidity: 94%   Direction: 160°SSE
Pressure: 28.94"   Gusts: NA
Location:  43.29°N, 8.39°W
Report Text: LECO 280930Z 16003KT 9999 -RA FEW022 BKN033 10/09 Q0980 TEMPO RA
Loading
Personal Weather Stations






























Interactive Weather Map New forecast layout! Learn more

10-Day Weather Forecast

Advertisements
Track Severe Weather on mobile